createdAt,value
2018-11-12T00:00:16.107Z,99.90
2018-11-12T00:02:46.714Z,99.90
2018-11-12T00:05:15.974Z,99.90
2018-11-12T00:07:44.917Z,99.90
2018-11-12T00:10:14.217Z,99.90
2018-11-12T00:12:43.213Z,99.90
2018-11-12T00:15:12.614Z,99.90
2018-11-12T00:17:41.580Z,99.90
2018-11-12T00:20:12.167Z,99.90
2018-11-12T00:22:41.060Z,99.90
2018-11-12T00:25:10.042Z,99.90
2018-11-12T00:27:39.343Z,99.90
2018-11-12T00:30:10.230Z,99.90
2018-11-12T00:32:39.112Z,99.90
2018-11-12T00:35:08.863Z,99.90
2018-11-12T00:37:37.740Z,99.90
2018-11-12T00:40:08.195Z,99.90
2018-11-12T00:42:37.154Z,99.90
2018-11-12T00:45:06.222Z,99.90
2018-11-12T00:47:35.131Z,99.90
2018-11-12T00:50:04.195Z,99.90
2018-11-12T00:52:33.080Z,99.90
2018-11-12T00:55:01.962Z,99.90
2018-11-12T00:57:30.931Z,99.90
2018-11-12T00:59:59.820Z,99.90
2018-11-12T01:02:28.728Z,99.90
2018-11-12T01:04:57.659Z,99.90
2018-11-12T01:07:27.163Z,99.90
2018-11-12T01:09:56.010Z,99.90
2018-11-12T01:12:24.913Z,99.90
2018-11-12T01:14:53.804Z,99.90
2018-11-12T01:17:22.706Z,99.90
2018-11-12T01:19:51.627Z,99.90
2018-11-12T01:22:20.474Z,99.90
2018-11-12T01:24:49.359Z,99.90
2018-11-12T01:27:18.299Z,99.90
2018-11-12T01:29:47.179Z,99.90
2018-11-12T01:32:16.066Z,99.90
2018-11-12T01:34:44.997Z,99.90
2018-11-12T01:37:13.887Z,99.90
2018-11-12T01:39:42.758Z,99.90
2018-11-12T01:42:11.874Z,99.90
2018-11-12T01:44:40.733Z,99.90
2018-11-12T01:47:09.651Z,99.90
2018-11-12T01:49:39.134Z,99.90
2018-11-12T01:52:08.490Z,99.90
2018-11-12T01:54:37.942Z,99.90
2018-11-12T01:57:06.874Z,99.90
2018-11-12T01:59:35.754Z,99.90
2018-11-12T02:02:04.783Z,99.90
2018-11-12T02:04:33.711Z,99.90
2018-11-12T02:07:02.604Z,99.90
2018-11-12T02:09:31.701Z,99.90
2018-11-12T02:12:00.800Z,99.90
2018-11-12T02:14:29.796Z,99.90
2018-11-12T02:16:58.739Z,99.90
2018-11-12T02:19:27.671Z,99.90
2018-11-12T02:21:56.558Z,99.90
2018-11-12T02:24:25.570Z,99.90
2018-11-12T02:26:54.478Z,99.90
2018-11-12T02:29:23.439Z,99.90
2018-11-12T02:31:52.348Z,99.90
2018-11-12T02:34:21.505Z,99.90
2018-11-12T02:36:50.483Z,99.90
2018-11-12T02:39:19.357Z,99.90
2018-11-12T02:41:48.289Z,99.90
2018-11-12T02:44:17.178Z,99.90
2018-11-12T02:46:46.059Z,99.90
2018-11-12T02:49:15.037Z,99.90
2018-11-12T02:51:44.052Z,99.90
2018-11-12T02:54:12.923Z,99.90
2018-11-12T02:56:41.875Z,99.90
2018-11-12T02:59:11.116Z,99.90
2018-11-12T03:01:40.008Z,99.90
2018-11-12T03:04:08.998Z,99.90
2018-11-12T03:06:37.862Z,99.90
2018-11-12T03:09:10.496Z,99.90
2018-11-12T03:11:39.455Z,99.90
2018-11-12T03:14:09.096Z,99.90
2018-11-12T03:16:38.147Z,99.90
2018-11-12T03:19:07.151Z,99.90
2018-11-12T03:21:36.067Z,99.90
2018-11-12T03:24:05.306Z,99.90
2018-11-12T03:26:34.201Z,99.90
2018-11-12T03:29:03.107Z,99.90
2018-11-12T03:31:32.145Z,99.90
2018-11-12T03:34:01.042Z,99.90
2018-11-12T03:36:29.914Z,99.90
2018-11-12T03:38:58.795Z,99.90
2018-11-12T03:41:27.734Z,99.90
2018-11-12T03:43:56.654Z,99.90
2018-11-12T03:46:25.623Z,99.90
2018-11-12T03:48:54.501Z,99.90
2018-11-12T03:51:23.389Z,99.90
2018-11-12T03:53:52.417Z,99.90
2018-11-12T03:56:21.263Z,99.90
2018-11-12T03:58:50.118Z,99.90
2018-11-12T04:01:19.016Z,99.90
2018-11-12T04:03:47.901Z,99.90
2018-11-12T04:06:16.795Z,99.90
2018-11-12T04:08:45.721Z,99.90
2018-11-12T04:11:14.623Z,99.90
2018-11-12T04:13:43.515Z,99.90
2018-11-12T04:16:12.437Z,99.90
2018-11-12T04:18:41.668Z,99.90
2018-11-12T04:21:10.570Z,99.90
2018-11-12T04:23:39.502Z,99.90
2018-11-12T04:26:08.386Z,99.90
2018-11-12T04:28:37.255Z,99.90
2018-11-12T04:31:06.263Z,99.90
2018-11-12T04:33:35.138Z,99.90
2018-11-12T04:36:04.044Z,99.90
2018-11-12T04:38:32.961Z,99.90
2018-11-12T04:41:01.813Z,99.90
2018-11-12T04:43:30.697Z,99.90
2018-11-12T04:45:59.633Z,99.90
2018-11-12T04:48:28.515Z,99.90
2018-11-12T04:50:57.375Z,99.90
2018-11-12T04:53:26.321Z,99.90
2018-11-12T04:55:55.196Z,99.90
2018-11-12T04:58:24.065Z,99.90
2018-11-12T05:00:53.069Z,99.90
2018-11-12T05:03:21.946Z,99.90
2018-11-12T05:05:50.820Z,99.90
2018-11-12T05:08:19.824Z,99.90
2018-11-12T05:10:48.711Z,99.90
2018-11-12T05:13:17.591Z,99.90
2018-11-12T05:15:46.527Z,99.90
2018-11-12T05:18:15.380Z,99.90
2018-11-12T05:20:44.290Z,99.90
2018-11-12T05:23:13.206Z,99.90
2018-11-12T05:25:42.076Z,99.90
2018-11-12T05:28:10.955Z,99.90
2018-11-12T05:30:39.882Z,99.90
2018-11-12T05:33:08.752Z,99.90
2018-11-12T05:35:37.612Z,99.90
2018-11-12T05:38:06.895Z,99.90
2018-11-12T05:40:35.806Z,99.90
2018-11-12T05:43:04.742Z,99.90
2018-11-12T05:45:33.635Z,99.90
2018-11-12T05:48:02.605Z,99.90
2018-11-12T05:50:32.443Z,99.90
2018-11-12T05:53:02.687Z,99.90
2018-11-12T05:55:32.104Z,99.90
2018-11-12T05:58:01.407Z,99.90
2018-11-12T06:00:32.503Z,99.90
2018-11-12T06:03:01.663Z,99.90
2018-11-12T06:05:30.770Z,99.90
2018-11-12T06:07:59.728Z,99.90
2018-11-12T06:10:29.733Z,99.90
2018-11-12T06:12:58.607Z,99.90
2018-11-12T06:15:27.627Z,99.90
2018-11-12T06:17:56.528Z,99.90
2018-11-12T06:20:26.774Z,99.90
2018-11-12T06:22:55.721Z,99.90
2018-11-12T06:25:26.031Z,99.90
2018-11-12T06:27:55.546Z,99.90
2018-11-12T06:30:25.889Z,99.90
2018-11-12T06:32:54.763Z,99.90
2018-11-12T06:35:23.686Z,99.90
2018-11-12T06:37:53.158Z,99.90
2018-11-12T06:40:23.383Z,99.90
2018-11-12T06:42:52.717Z,99.90
2018-11-12T06:45:24.854Z,99.90
2018-11-12T06:47:54.590Z,99.90
2018-11-12T06:50:25.330Z,99.90
2018-11-12T06:52:54.291Z,99.90
2018-11-12T06:55:23.552Z,99.90
2018-11-12T06:57:52.789Z,99.90
2018-11-12T07:00:30.188Z,99.90
2018-11-12T07:02:59.163Z,99.90
2018-11-12T07:05:28.415Z,99.90
2018-11-12T07:07:57.307Z,99.90
2018-11-12T07:10:27.167Z,99.90
2018-11-12T07:12:56.834Z,99.90
2018-11-12T07:15:27.146Z,78.50
2018-11-12T07:17:56.338Z,53.00
2018-11-12T07:20:26.734Z,40.50
2018-11-12T07:22:55.730Z,39.60
2018-11-12T07:25:28.906Z,36.30
2018-11-12T07:27:58.246Z,36.00
2018-11-12T07:30:27.947Z,34.80
2018-11-12T07:32:57.909Z,34.90
2018-11-12T07:35:27.052Z,31.50
2018-11-12T07:37:56.651Z,32.30
2018-11-12T07:40:25.660Z,32.80
2018-11-12T07:42:54.589Z,34.80
2018-11-12T07:45:24.791Z,34.60
2018-11-12T07:47:54.606Z,38.30
2018-11-12T07:50:25.541Z,49.20
2018-11-12T07:52:54.475Z,63.50
2018-11-12T07:55:24.669Z,80.80
2018-11-12T07:57:54.644Z,93.50
2018-11-12T08:00:27.964Z,99.90
2018-11-12T08:03:02.261Z,99.90
2018-11-12T08:05:31.158Z,99.90
2018-11-12T08:08:00.028Z,99.90
2018-11-12T08:10:28.945Z,99.90
2018-11-12T08:12:58.085Z,99.90
2018-11-12T08:15:26.973Z,99.90
2018-11-12T08:17:56.240Z,99.90
2018-11-12T08:20:26.030Z,99.90
2018-11-12T08:22:55.188Z,99.90
2018-11-12T08:25:24.973Z,99.90
2018-11-12T08:27:53.930Z,99.90
2018-11-12T08:30:24.139Z,88.60
2018-11-12T08:32:55.666Z,68.00
2018-11-12T08:35:24.543Z,51.70
2018-11-12T08:37:53.946Z,45.80
2018-11-12T08:40:24.319Z,42.30
2018-11-12T08:42:53.182Z,46.00
2018-11-12T08:45:22.051Z,50.40
2018-11-12T08:47:52.398Z,56.40
2018-11-12T08:50:23.102Z,68.80
2018-11-12T08:52:52.736Z,77.80
2018-11-12T08:55:23.032Z,92.80
2018-11-12T08:57:54.283Z,97.10
2018-11-12T09:00:24.077Z,99.90
2018-11-12T09:02:53.013Z,99.90
2018-11-12T09:05:23.337Z,99.90
2018-11-12T09:07:53.928Z,99.90
2018-11-12T09:10:24.951Z,99.90
2018-11-12T09:12:54.101Z,99.90
2018-11-12T09:15:23.242Z,99.80
2018-11-12T09:17:52.424Z,98.30
2018-11-12T09:20:22.855Z,95.00
2018-11-12T09:22:52.186Z,94.10
2018-11-12T09:25:22.994Z,92.60
2018-11-12T09:27:52.286Z,95.40
2018-11-12T09:30:22.613Z,92.70
2018-11-12T09:32:51.603Z,93.70
2018-11-12T09:35:22.688Z,94.50
2018-11-12T09:37:52.540Z,94.70
2018-11-12T09:40:23.854Z,93.90
2018-11-12T09:42:52.799Z,95.30
2018-11-12T09:45:21.778Z,94.50
2018-11-12T09:47:51.045Z,93.20
2018-11-12T09:50:22.174Z,94.60
2018-11-12T09:52:52.476Z,95.70
2018-11-12T09:55:22.576Z,96.40
2018-11-12T09:57:54.364Z,95.30
2018-11-12T10:00:23.439Z,95.50
2018-11-12T10:02:53.358Z,94.10
2018-11-12T10:05:23.414Z,92.90
2018-11-12T10:08:00.784Z,91.40
2018-11-12T10:10:36.706Z,90.60
2018-11-12T10:13:08.032Z,90.00
2018-11-12T10:15:36.863Z,87.80
2018-11-12T10:18:06.211Z,88.80
2018-11-12T10:20:31.524Z,81.60
2018-11-12T10:23:00.426Z,79.30
2018-11-12T10:25:29.361Z,76.20
2018-11-12T10:27:58.683Z,77.60
2018-11-12T10:30:27.640Z,75.80
2018-11-12T10:32:56.601Z,78.10
2018-11-12T10:35:25.466Z,75.00
2018-11-12T10:37:54.407Z,75.90
2018-11-12T10:40:24.400Z,76.30
2018-11-12T10:42:53.921Z,76.70
2018-11-12T10:45:22.833Z,76.00
2018-11-12T10:47:52.629Z,76.00
2018-11-12T10:50:21.900Z,77.80
2018-11-12T10:52:50.908Z,81.10
2018-11-12T10:55:21.268Z,78.60
2018-11-12T10:57:50.358Z,77.50
2018-11-12T11:00:28.974Z,76.00
2018-11-12T11:03:05.085Z,79.10
2018-11-12T11:05:34.370Z,75.70
2018-11-12T11:08:03.444Z,75.00
2018-11-12T11:10:32.721Z,76.40
2018-11-12T11:13:02.687Z,81.90
2018-11-12T11:15:32.318Z,77.70
2018-11-12T11:18:01.251Z,77.70
2018-11-12T11:20:30.362Z,78.40
2018-11-12T11:22:59.506Z,80.10
2018-11-12T11:25:29.643Z,81.70
2018-11-12T11:27:58.757Z,80.70
2018-11-12T11:30:27.655Z,80.00
2018-11-12T11:32:56.566Z,79.80
2018-11-12T11:35:25.521Z,79.30
2018-11-12T11:37:54.439Z,79.50
2018-11-12T11:40:24.720Z,76.40
2018-11-12T11:42:53.711Z,76.10
2018-11-12T11:45:22.900Z,76.90
2018-11-12T11:47:52.871Z,77.20
2018-11-12T11:50:23.104Z,76.50
2018-11-12T11:52:52.008Z,77.10
2018-11-12T11:55:22.290Z,77.20
2018-11-12T11:57:51.561Z,78.80
2018-11-12T12:00:21.808Z,78.60
2018-11-12T12:02:51.866Z,77.30
2018-11-12T12:05:21.845Z,77.50
2018-11-12T12:07:51.393Z,79.80
2018-11-12T12:10:20.308Z,85.20
2018-11-12T12:12:50.131Z,82.70
2018-11-12T12:15:20.094Z,84.30
2018-11-12T12:17:48.994Z,85.20
2018-11-12T12:20:19.452Z,84.00
2018-11-12T12:22:48.450Z,78.90
2018-11-12T12:25:17.930Z,75.70
2018-11-12T12:27:47.399Z,74.70
2018-11-12T12:30:22.972Z,73.50
2018-11-12T12:32:52.869Z,73.30
2018-11-12T12:35:22.000Z,76.50
2018-11-12T12:37:51.035Z,75.80
2018-11-12T12:40:21.427Z,77.60
2018-11-12T12:42:50.424Z,76.70
2018-11-12T12:45:21.587Z,76.60
2018-11-12T12:47:50.821Z,72.40
2018-11-12T12:50:20.200Z,70.90
2018-11-12T12:52:49.165Z,74.50
2018-11-12T12:55:18.553Z,72.60
2018-11-12T12:57:47.767Z,74.10
2018-11-12T13:00:21.752Z,73.50
2018-11-12T13:02:51.366Z,71.80
2018-11-12T13:05:20.244Z,75.70
2018-11-12T13:07:49.242Z,79.10
2018-11-12T13:10:19.499Z,80.40
2018-11-12T13:12:48.895Z,79.50
2018-11-12T13:15:19.077Z,81.70
2018-11-12T13:17:48.578Z,80.10
2018-11-12T13:20:18.763Z,86.10
2018-11-12T13:22:48.258Z,80.50
2018-11-12T13:25:17.171Z,77.60
2018-11-12T13:27:46.708Z,79.00
2018-11-12T13:30:17.875Z,78.60
2018-11-12T13:32:47.119Z,77.30
2018-11-12T13:35:17.505Z,80.40
2018-11-12T13:37:46.420Z,78.40
2018-11-12T13:40:19.327Z,80.90
2018-11-12T13:42:49.995Z,79.20
2018-11-12T13:45:19.092Z,82.10
2018-11-12T13:47:48.251Z,84.30
2018-11-12T13:50:18.443Z,86.40
2018-11-12T13:52:47.703Z,87.10
2018-11-12T13:55:17.966Z,90.20
2018-11-12T13:57:46.860Z,90.10
2018-11-12T14:00:17.143Z,91.90
2018-11-12T14:02:47.644Z,91.30
2018-11-12T14:05:17.819Z,91.10
2018-11-12T14:07:46.990Z,91.80
2018-11-12T14:10:18.176Z,93.40
2018-11-12T14:12:47.573Z,95.90
2018-11-12T14:15:18.427Z,95.20
2018-11-12T14:17:47.968Z,99.30
2018-11-12T14:20:17.262Z,95.50
2018-11-12T14:22:46.512Z,96.70
2018-11-12T14:25:16.679Z,95.60
2018-11-12T14:27:46.672Z,98.10
2018-11-12T14:30:17.005Z,98.70
2018-11-12T14:32:45.953Z,98.30
2018-11-12T14:35:15.348Z,98.20
2018-11-12T14:37:45.426Z,99.90
2018-11-12T14:40:15.488Z,99.90
2018-11-12T14:42:44.578Z,99.90
2018-11-12T14:45:19.970Z,99.90
2018-11-12T14:47:49.151Z,99.90
2018-11-12T14:50:18.073Z,99.90
2018-11-12T14:52:47.499Z,99.90
2018-11-12T14:55:17.504Z,99.90
2018-11-12T14:57:46.862Z,99.90
2018-11-12T15:00:19.706Z,99.90
2018-11-12T15:02:49.196Z,99.90
2018-11-12T15:05:19.586Z,99.90
2018-11-12T15:07:48.972Z,99.90
2018-11-12T15:10:17.959Z,99.90
2018-11-12T15:12:47.481Z,99.90
2018-11-12T15:15:16.711Z,99.90
2018-11-12T15:17:46.040Z,99.90
2018-11-12T15:20:16.470Z,99.90
2018-11-12T15:22:45.912Z,99.90
2018-11-12T15:25:18.056Z,99.90
2018-11-12T15:27:47.104Z,99.90
2018-11-12T15:30:17.355Z,99.90
2018-11-12T15:32:47.333Z,99.90
2018-11-12T15:35:16.664Z,99.90
2018-11-12T15:37:46.308Z,99.90
2018-11-12T15:40:15.587Z,99.90
2018-11-12T15:42:44.489Z,99.90
2018-11-12T15:45:16.868Z,99.90
2018-11-12T15:47:46.656Z,99.90
2018-11-12T15:50:32.109Z,99.90
2018-11-12T15:53:01.029Z,99.90
2018-11-12T15:55:29.966Z,99.90
2018-11-12T15:57:59.024Z,99.90
2018-11-12T16:00:27.953Z,99.90
2018-11-12T16:02:56.826Z,99.90
2018-11-12T16:05:25.954Z,99.90
2018-11-12T16:07:55.058Z,99.90
2018-11-12T16:10:24.203Z,99.90
2018-11-12T16:12:53.440Z,99.90
2018-11-12T16:15:22.951Z,99.90
2018-11-12T16:17:51.903Z,99.90
2018-11-12T16:20:27.212Z,99.90
2018-11-12T16:22:56.956Z,99.90
2018-11-12T16:25:26.408Z,99.90
2018-11-12T16:27:55.384Z,99.90
2018-11-12T16:30:25.088Z,99.90
2018-11-12T16:33:00.281Z,99.90
2018-11-12T16:35:29.407Z,99.90
2018-11-12T16:37:58.313Z,99.90
2018-11-12T16:40:27.319Z,99.90
2018-11-12T16:42:56.453Z,99.90
2018-11-12T16:45:25.380Z,99.90
2018-11-12T16:47:54.621Z,99.90
2018-11-12T16:50:24.336Z,99.90
2018-11-12T16:52:54.151Z,99.90
2018-11-12T16:55:24.169Z,99.90
2018-11-12T16:57:53.610Z,99.90
2018-11-12T17:00:23.782Z,99.90
2018-11-12T17:02:53.957Z,99.90
2018-11-12T17:05:25.576Z,99.90
2018-11-12T17:07:54.655Z,99.90
2018-11-12T17:10:24.887Z,99.90
2018-11-12T17:12:53.837Z,99.90
2018-11-12T17:15:22.833Z,99.90
2018-11-12T17:17:51.769Z,99.90
2018-11-12T17:20:21.637Z,99.90
2018-11-12T17:22:50.565Z,99.90
2018-11-12T17:25:19.884Z,99.90
2018-11-12T17:27:49.080Z,99.90
2018-11-12T17:30:19.921Z,99.90
2018-11-12T17:32:50.252Z,99.90
2018-11-12T17:35:20.681Z,99.90
2018-11-12T17:37:50.007Z,99.90
2018-11-12T17:40:20.904Z,99.90
2018-11-12T17:42:50.511Z,99.90
2018-11-12T17:45:20.887Z,99.90
2018-11-12T17:47:51.042Z,99.90
2018-11-12T17:50:20.346Z,99.90
2018-11-12T17:52:49.288Z,99.90
2018-11-12T17:55:18.438Z,99.90
2018-11-12T17:57:47.393Z,99.90
2018-11-12T18:00:23.081Z,99.90
2018-11-12T18:02:52.626Z,99.90
2018-11-12T18:05:22.059Z,99.90
2018-11-12T18:08:01.317Z,99.90
2018-11-12T18:10:30.247Z,99.90
2018-11-12T18:12:59.275Z,99.90
2018-11-12T18:15:28.499Z,99.90
2018-11-12T18:17:57.560Z,99.90
2018-11-12T18:20:27.695Z,99.90
2018-11-12T18:22:57.872Z,99.90
2018-11-12T18:25:27.136Z,99.90
2018-11-12T18:27:57.132Z,99.90
2018-11-12T18:30:29.569Z,99.90
2018-11-12T18:33:00.058Z,99.90
2018-11-12T18:35:29.702Z,99.90
2018-11-12T18:37:59.147Z,99.90
2018-11-12T18:40:30.396Z,99.90
2018-11-12T18:42:59.863Z,99.90
2018-11-12T18:45:29.698Z,99.90
2018-11-12T18:48:00.047Z,99.90
2018-11-12T18:50:30.856Z,99.90
2018-11-12T18:53:03.131Z,99.90
2018-11-12T18:55:32.831Z,99.90
2018-11-12T18:58:07.129Z,99.90
2018-11-12T19:00:44.124Z,99.90
2018-11-12T19:03:25.485Z,99.90
2018-11-12T19:05:56.211Z,99.90
2018-11-12T19:08:26.210Z,99.90
2018-11-12T19:11:09.487Z,99.90
2018-11-12T19:13:54.111Z,99.90
2018-11-12T19:16:29.685Z,99.90
2018-11-12T19:18:59.141Z,99.90
2018-11-12T19:21:28.071Z,99.90
2018-11-12T19:23:57.233Z,99.90
2018-11-12T19:26:26.271Z,99.90
2018-11-12T19:28:55.159Z,99.90
2018-11-12T19:31:24.055Z,99.90
2018-11-12T19:33:53.041Z,99.90
2018-11-12T19:36:21.948Z,99.90
2018-11-12T19:38:51.473Z,99.90
2018-11-12T19:41:20.426Z,99.90
2018-11-12T19:43:49.319Z,99.90
2018-11-12T19:46:18.231Z,99.90
2018-11-12T19:48:47.202Z,99.90
2018-11-12T19:51:16.153Z,99.90
2018-11-12T19:53:45.089Z,99.90
2018-11-12T19:56:14.124Z,99.90
2018-11-12T19:58:43.043Z,99.90
2018-11-12T20:01:11.948Z,99.90
2018-11-12T20:03:40.890Z,99.90
2018-11-12T20:06:09.962Z,99.90
2018-11-12T20:08:38.924Z,99.90
2018-11-12T20:11:07.880Z,99.90
2018-11-12T20:13:36.798Z,99.90
2018-11-12T20:16:05.787Z,99.90
2018-11-12T20:18:35.029Z,99.90
2018-11-12T20:21:03.983Z,99.90
2018-11-12T20:23:32.921Z,99.90
2018-11-12T20:26:01.947Z,99.90
2018-11-12T20:28:30.854Z,99.90
2018-11-12T20:30:59.771Z,99.90
2018-11-12T20:33:28.757Z,99.90
2018-11-12T20:35:57.695Z,99.90
2018-11-12T20:38:26.647Z,99.90
2018-11-12T20:40:56.166Z,99.90
2018-11-12T20:43:25.455Z,99.90
2018-11-12T20:45:54.388Z,99.90
2018-11-12T20:48:23.427Z,99.90
2018-11-12T20:50:52.366Z,99.90
2018-11-12T20:53:21.287Z,99.90
2018-11-12T20:55:50.322Z,99.90
2018-11-12T20:58:19.315Z,99.90
2018-11-12T21:00:48.559Z,99.90
2018-11-12T21:03:17.509Z,99.90
2018-11-12T21:05:46.404Z,99.90
2018-11-12T21:08:15.309Z,99.90
2018-11-12T21:10:44.387Z,99.90
2018-11-12T21:13:13.276Z,99.90
2018-11-12T21:15:42.191Z,99.90
2018-11-12T21:18:11.143Z,99.90
2018-11-12T21:20:40.019Z,99.90
2018-11-12T21:23:09.356Z,99.90
2018-11-12T21:25:38.288Z,99.90
2018-11-12T21:28:07.233Z,99.90
2018-11-12T21:30:36.110Z,99.90
2018-11-12T21:33:05.135Z,99.90
2018-11-12T21:35:34.008Z,99.90
2018-11-12T21:38:02.917Z,99.90
2018-11-12T21:40:31.874Z,99.90
2018-11-12T21:43:00.864Z,99.90
2018-11-12T21:45:30.715Z,99.90
2018-11-12T21:47:59.657Z,99.90
2018-11-12T21:50:28.613Z,99.90
2018-11-12T21:52:57.563Z,99.90
2018-11-12T21:55:26.485Z,99.90
2018-11-12T21:57:55.387Z,99.90
2018-11-12T22:00:26.230Z,99.90
2018-11-12T22:02:57.508Z,99.90
2018-11-12T22:05:27.053Z,99.90
2018-11-12T22:07:55.934Z,99.90
2018-11-12T22:10:25.048Z,99.90
2018-11-12T22:12:54.578Z,99.90
2018-11-12T22:15:23.600Z,99.90
2018-11-12T22:17:52.559Z,99.90
2018-11-12T22:20:24.953Z,99.90
2018-11-12T22:22:54.241Z,99.90
2018-11-12T22:25:23.687Z,99.90
2018-11-12T22:27:53.279Z,99.90
2018-11-12T22:30:23.379Z,99.90
2018-11-12T22:32:54.241Z,99.90
2018-11-12T22:35:23.499Z,99.90
2018-11-12T22:37:52.427Z,99.90
2018-11-12T22:40:21.924Z,99.90
2018-11-12T22:42:51.651Z,99.90
2018-11-12T22:45:22.821Z,99.90
2018-11-12T22:47:52.499Z,99.90
2018-11-12T22:50:21.457Z,99.90
2018-11-12T22:52:50.419Z,99.90
2018-11-12T22:55:19.908Z,99.90
2018-11-12T22:57:48.893Z,99.90
2018-11-12T23:00:24.368Z,99.90
2018-11-12T23:02:53.927Z,99.90
2018-11-12T23:05:23.490Z,99.90
2018-11-12T23:07:53.197Z,99.90
2018-11-12T23:10:22.479Z,99.90
2018-11-12T23:12:51.513Z,99.90
2018-11-12T23:15:20.796Z,99.90
2018-11-12T23:17:49.791Z,99.90
2018-11-12T23:20:24.767Z,99.90
2018-11-12T23:22:54.092Z,99.90
2018-11-12T23:25:23.033Z,99.90
2018-11-12T23:27:52.597Z,99.90
2018-11-12T23:30:22.646Z,99.90
2018-11-12T23:32:51.538Z,99.90
2018-11-12T23:35:22.826Z,99.90
2018-11-12T23:37:51.931Z,99.90
2018-11-12T23:40:20.828Z,99.90
2018-11-12T23:42:49.759Z,99.90
2018-11-12T23:45:18.660Z,99.90
2018-11-12T23:47:47.526Z,99.90
2018-11-12T23:50:17.818Z,99.90
2018-11-12T23:52:47.461Z,99.90
2018-11-12T23:55:16.633Z,99.90
2018-11-12T23:57:47.464Z,99.90
